sensor_id;sensor_type;location;lat;lon;timestamp;temperature;humidity
27803;DHT22;15182;48.174;11.562;2023-03-01T00:02:28;6.70;85.40
27803;DHT22;15182;48.174;11.562;2023-03-01T00:04:59;6.70;85.40
27803;DHT22;15182;48.174;11.562;2023-03-01T00:07:31;6.70;85.40
27803;DHT22;15182;48.174;11.562;2023-03-01T00:10:02;6.70;85.50
27803;DHT22;15182;48.174;11.562;2023-03-01T00:12:33;6.70;85.60
27803;DHT22;15182;48.174;11.562;2023-03-01T00:15:06;6.70;85.60
27803;DHT22;15182;48.174;11.562;2023-03-01T00:17:40;6.70;85.70
27803;DHT22;15182;48.174;11.562;2023-03-01T00:20:12;6.70;85.70
27803;DHT22;15182;48.174;11.562;2023-03-01T00:22:44;6.70;85.70
27803;DHT22;15182;48.174;11.562;2023-03-01T00:25:15;6.70;85.60
27803;DHT22;15182;48.174;11.562;2023-03-01T00:27:48;6.70;85.60
27803;DHT22;15182;48.174;11.562;2023-03-01T00:30:19;6.70;85.70
27803;DHT22;15182;48.174;11.562;2023-03-01T00:32:52;6.70;85.70
27803;DHT22;15182;48.174;11.562;2023-03-01T00:35:25;6.70;85.70
27803;DHT22;15182;48.174;11.562;2023-03-01T00:37:56;6.70;85.60
27803;DHT22;15182;48.174;11.562;2023-03-01T00:40:30;6.70;85.60
27803;DHT22;15182;48.174;11.562;2023-03-01T00:43:03;6.70;85.60
27803;DHT22;15182;48.174;11.562;2023-03-01T00:45:34;6.70;85.60
27803;DHT22;15182;48.174;11.562;2023-03-01T00:48:08;6.70;85.60
27803;DHT22;15182;48.174;11.562;2023-03-01T00:50:40;6.70;85.70
27803;DHT22;15182;48.174;11.562;2023-03-01T00:53:12;6.70;85.70
27803;DHT22;15182;48.174;11.562;2023-03-01T00:55:43;6.70;85.60
27803;DHT22;15182;48.174;11.562;2023-03-01T00:58:14;6.70;85.70
27803;DHT22;15182;48.174;11.562;2023-03-01T01:00:45;6.60;85.70
27803;DHT22;15182;48.174;11.562;2023-03-01T01:03:18;6.60;85.60
27803;DHT22;15182;48.174;11.562;2023-03-01T01:05:50;6.60;86.50
27803;DHT22;15182;48.174;11.562;2023-03-01T01:08:22;6.60;85.60
27803;DHT22;15182;48.174;11.562;2023-03-01T01:10:53;6.60;85.70
27803;DHT22;15182;48.174;11.562;2023-03-01T01:13:24;6.60;85.70
27803;DHT22;15182;48.174;11.562;2023-03-01T01:15:56;6.60;85.70
27803;DHT22;15182;48.174;11.562;2023-03-01T01:18:33;6.60;85.70
27803;DHT22;15182;48.174;11.562;2023-03-01T01:21:09;6.60;85.70
27803;DHT22;15182;48.174;11.562;2023-03-01T01:23:43;6.60;85.60
27803;DHT22;15182;48.174;11.562;2023-03-01T01:26:18;6.60;85.40
27803;DHT22;15182;48.174;11.562;2023-03-01T01:28:52;6.60;85.40
27803;DHT22;15182;48.174;11.562;2023-03-01T01:31:24;6.60;85.50
27803;DHT22;15182;48.174;11.562;2023-03-01T01:33:58;6.60;85.60
27803;DHT22;15182;48.174;11.562;2023-03-01T01:36:31;6.60;85.50
27803;DHT22;15182;48.174;11.562;2023-03-01T01:39:02;6.50;85.40
27803;DHT22;15182;48.174;11.562;2023-03-01T01:41:34;6.50;85.60
27803;DHT22;15182;48.174;11.562;2023-03-01T01:44:16;6.50;85.60
27803;DHT22;15182;48.174;11.562;2023-03-01T01:46:51;6.60;85.70
27803;DHT22;15182;48.174;11.562;2023-03-01T01:49:29;6.50;85.60
27803;DHT22;15182;48.174;11.562;2023-03-01T01:52:06;6.50;85.70
27803;DHT22;15182;48.174;11.562;2023-03-01T01:54:44;6.60;85.70
27803;DHT22;15182;48.174;11.562;2023-03-01T01:57:20;6.50;85.70
27803;DHT22;15182;48.174;11.562;2023-03-01T01:59:57;6.50;85.60
27803;DHT22;15182;48.174;11.562;2023-03-01T02:02:42;6.50;85.60
27803;DHT22;15182;48.174;11.562;2023-03-01T02:05:24;6.50;85.60
27803;DHT22;15182;48.174;11.562;2023-03-01T02:07:59;6.50;85.70
27803;DHT22;15182;48.174;11.562;2023-03-01T02:10:33;6.50;85.70
27803;DHT22;15182;48.174;11.562;2023-03-01T02:13:05;6.60;85.70
27803;DHT22;15182;48.174;11.562;2023-03-01T02:15:39;6.50;85.60
27803;DHT22;15182;48.174;11.562;2023-03-01T02:18:16;6.50;85.60
27803;DHT22;15182;48.174;11.562;2023-03-01T02:20:58;6.50;85.60
27803;DHT22;15182;48.174;11.562;2023-03-01T02:23:34;6.50;85.70
27803;DHT22;15182;48.174;11.562;2023-03-01T02:26:13;6.50;85.70
27803;DHT22;15182;48.174;11.562;2023-03-01T02:28:49;6.40;85.60
27803;DHT22;15182;48.174;11.562;2023-03-01T02:31:21;6.40;85.60
27803;DHT22;15182;48.174;11.562;2023-03-01T02:34:15;6.40;85.70
27803;DHT22;15182;48.174;11.562;2023-03-01T02:36:52;6.40;86.60
27803;DHT22;15182;48.174;11.562;2023-03-01T02:39:28;6.40;85.80
27803;DHT22;15182;48.174;11.562;2023-03-01T02:42:04;6.40;85.80
27803;DHT22;15182;48.174;11.562;2023-03-01T02:44:38;6.40;85.70
27803;DHT22;15182;48.174;11.562;2023-03-01T02:47:09;6.40;85.70
27803;DHT22;15182;48.174;11.562;2023-03-01T02:49:42;6.40;85.80
27803;DHT22;15182;48.174;11.562;2023-03-01T02:52:28;6.40;85.70
27803;DHT22;15182;48.174;11.562;2023-03-01T02:55:04;6.40;86.50
27803;DHT22;15182;48.174;11.562;2023-03-01T02:57:41;6.30;85.60
27803;DHT22;15182;48.174;11.562;2023-03-01T03:00:23;6.30;85.60
27803;DHT22;15182;48.174;11.562;2023-03-01T03:02:56;6.30;85.60
27803;DHT22;15182;48.174;11.562;2023-03-01T03:05:30;6.30;85.70
27803;DHT22;15182;48.174;11.562;2023-03-01T03:08:04;6.30;85.70
27803;DHT22;15182;48.174;11.562;2023-03-01T03:10:41;6.30;85.60
27803;DHT22;15182;48.174;11.562;2023-03-01T03:13:14;6.30;85.60
27803;DHT22;15182;48.174;11.562;2023-03-01T03:15:48;6.30;85.50
27803;DHT22;15182;48.174;11.562;2023-03-01T03:18:19;6.20;85.40
27803;DHT22;15182;48.174;11.562;2023-03-01T03:20:54;6.20;85.40
27803;DHT22;15182;48.174;11.562;2023-03-01T03:23:25;6.20;86.20
27803;DHT22;15182;48.174;11.562;2023-03-01T03:25:57;6.20;85.30
27803;DHT22;15182;48.174;11.562;2023-03-01T03:28:29;6.20;85.30
27803;DHT22;15182;48.174;11.562;2023-03-01T03:31:02;6.10;85.20
27803;DHT22;15182;48.174;11.562;2023-03-01T03:33:34;6.10;85.30
27803;DHT22;15182;48.174;11.562;2023-03-01T03:36:07;6.10;85.40
27803;DHT22;15182;48.174;11.562;2023-03-01T03:38:41;6.10;85.30
27803;DHT22;15182;48.174;11.562;2023-03-01T03:41:13;6.10;85.40
27803;DHT22;15182;48.174;11.562;2023-03-01T03:43:47;6.10;85.50
27803;DHT22;15182;48.174;11.562;2023-03-01T03:46:20;6.10;85.40
27803;DHT22;15182;48.174;11.562;2023-03-01T03:48:53;6.10;85.40
27803;DHT22;15182;48.174;11.562;2023-03-01T03:51:24;6.10;85.40
27803;DHT22;15182;48.174;11.562;2023-03-01T03:53:57;6.10;85.20
27803;DHT22;15182;48.174;11.562;2023-03-01T03:56:28;6.10;85.10
27803;DHT22;15182;48.174;11.562;2023-03-01T03:58:59;6.10;85.10
27803;DHT22;15182;48.174;11.562;2023-03-01T04:01:32;6.10;85.40
27803;DHT22;15182;48.174;11.562;2023-03-01T04:04:03;6.10;85.00
27803;DHT22;15182;48.174;11.562;2023-03-01T04:06:35;6.00;85.00
27803;DHT22;15182;48.174;11.562;2023-03-01T04:09:06;6.00;85.10
27803;DHT22;15182;48.174;11.562;2023-03-01T04:11:38;6.00;85.20
27803;DHT22;15182;48.174;11.562;2023-03-01T04:14:09;6.00;85.20
27803;DHT22;15182;48.174;11.562;2023-03-01T04:16:42;6.00;85.30
27803;DHT22;15182;48.174;11.562;2023-03-01T04:19:14;6.00;85.40
27803;DHT22;15182;48.174;11.562;2023-03-01T04:21:45;6.00;85.40
27803;DHT22;15182;48.174;11.562;2023-03-01T04:24:16;6.00;85.40
27803;DHT22;15182;48.174;11.562;2023-03-01T04:26:49;6.00;85.40
27803;DHT22;15182;48.174;11.562;2023-03-01T04:29:20;6.10;86.20
27803;DHT22;15182;48.174;11.562;2023-03-01T04:31:53;6.00;85.20
27803;DHT22;15182;48.174;11.562;2023-03-01T04:34:24;6.10;85.30
27803;DHT22;15182;48.174;11.562;2023-03-01T04:36:57;6.00;85.30
27803;DHT22;15182;48.174;11.562;2023-03-01T04:39:28;6.00;85.30
27803;DHT22;15182;48.174;11.562;2023-03-01T04:42:02;6.00;85.30
27803;DHT22;15182;48.174;11.562;2023-03-01T04:44:33;6.00;85.40
27803;DHT22;15182;48.174;11.562;2023-03-01T04:47:06;6.00;85.30
27803;DHT22;15182;48.174;11.562;2023-03-01T04:49:37;6.00;85.20
27803;DHT22;15182;48.174;11.562;2023-03-01T04:52:08;6.00;85.20
27803;DHT22;15182;48.174;11.562;2023-03-01T04:54:40;5.90;85.00
27803;DHT22;15182;48.174;11.562;2023-03-01T04:57:11;5.90;85.00
27803;DHT22;15182;48.174;11.562;2023-03-01T04:59:42;5.90;85.00
27803;DHT22;15182;48.174;11.562;2023-03-01T05:02:15;5.90;85.10
27803;DHT22;15182;48.174;11.562;2023-03-01T05:04:46;5.80;85.00
27803;DHT22;15182;48.174;11.562;2023-03-01T05:07:17;5.80;85.00
27803;DHT22;15182;48.174;11.562;2023-03-01T05:09:48;5.80;85.00
27803;DHT22;15182;48.174;11.562;2023-03-01T05:12:20;5.70;85.00
27803;DHT22;15182;48.174;11.562;2023-03-01T05:14:51;5.80;85.10
27803;DHT22;15182;48.174;11.562;2023-03-01T05:17:24;5.70;85.00
27803;DHT22;15182;48.174;11.562;2023-03-01T05:19:57;5.70;85.00
27803;DHT22;15182;48.174;11.562;2023-03-01T05:22:28;5.70;85.00
27803;DHT22;15182;48.174;11.562;2023-03-01T05:25:02;5.70;85.00
27803;DHT22;15182;48.174;11.562;2023-03-01T05:27:34;5.60;84.90
27803;DHT22;15182;48.174;11.562;2023-03-01T05:30:09;5.60;85.00
27803;DHT22;15182;48.174;11.562;2023-03-01T05:32:48;5.60;85.10
27803;DHT22;15182;48.174;11.562;2023-03-01T05:35:23;5.60;85.20
27803;DHT22;15182;48.174;11.562;2023-03-01T05:37:57;5.50;85.10
27803;DHT22;15182;48.174;11.562;2023-03-01T05:40:28;5.60;85.30
27803;DHT22;15182;48.174;11.562;2023-03-01T05:43:04;5.50;85.20
27803;DHT22;15182;48.174;11.562;2023-03-01T05:45:35;5.50;85.20
27803;DHT22;15182;48.174;11.562;2023-03-01T05:48:09;5.50;85.30
27803;DHT22;15182;48.174;11.562;2023-03-01T05:50:43;5.50;85.20
27803;DHT22;15182;48.174;11.562;2023-03-01T05:53:16;5.50;85.30
27803;DHT22;15182;48.174;11.562;2023-03-01T05:55:49;5.50;85.30
27803;DHT22;15182;48.174;11.562;2023-03-01T05:58:21;5.50;85.30
27803;DHT22;15182;48.174;11.562;2023-03-01T06:00:52;5.40;85.30
27803;DHT22;15182;48.174;11.562;2023-03-01T06:03:25;5.50;85.30
27803;DHT22;15182;48.174;11.562;2023-03-01T06:05:58;5.50;85.30
27803;DHT22;15182;48.174;11.562;2023-03-01T06:08:30;5.40;85.40
27803;DHT22;15182;48.174;11.562;2023-03-01T06:11:03;5.40;85.40
27803;DHT22;15182;48.174;11.562;2023-03-01T06:13:35;5.40;85.60
27803;DHT22;15182;48.174;11.562;2023-03-01T06:16:09;5.40;85.60
27803;DHT22;15182;48.174;11.562;2023-03-01T06:18:42;5.40;85.50
27803;DHT22;15182;48.174;11.562;2023-03-01T06:21:14;5.40;85.50
27803;DHT22;15182;48.174;11.562;2023-03-01T06:23:45;5.40;85.40
27803;DHT22;15182;48.174;11.562;2023-03-01T06:26:16;5.40;85.40
27803;DHT22;15182;48.174;11.562;2023-03-01T06:28:47;5.40;85.50
27803;DHT22;15182;48.174;11.562;2023-03-01T06:34:01;5.50;85.60
27803;DHT22;15182;48.174;11.562;2023-03-01T06:36:32;5.40;85.40
27803;DHT22;15182;48.174;11.562;2023-03-01T06:39:04;5.40;86.40
27803;DHT22;15182;48.174;11.562;2023-03-01T06:41:35;5.40;85.50
27803;DHT22;15182;48.174;11.562;2023-03-01T06:44:06;5.40;85.60
27803;DHT22;15182;48.174;11.562;2023-03-01T06:46:37;5.40;85.60
27803;DHT22;15182;48.174;11.562;2023-03-01T06:49:11;5.40;85.50
27803;DHT22;15182;48.174;11.562;2023-03-01T06:51:44;5.40;85.60
27803;DHT22;15182;48.174;11.562;2023-03-01T06:54:15;5.40;85.60
27803;DHT22;15182;48.174;11.562;2023-03-01T06:56:50;5.40;85.70
27803;DHT22;15182;48.174;11.562;2023-03-01T06:59:21;5.40;85.80
27803;DHT22;15182;48.174;11.562;2023-03-01T07:01:52;5.50;85.80
27803;DHT22;15182;48.174;11.562;2023-03-01T07:04:25;5.50;85.70
27803;DHT22;15182;48.174;11.562;2023-03-01T07:06:58;5.50;86.60
27803;DHT22;15182;48.174;11.562;2023-03-01T07:09:30;5.50;85.60
27803;DHT22;15182;48.174;11.562;2023-03-01T07:12:01;5.50;85.60
27803;DHT22;15182;48.174;11.562;2023-03-01T07:14:33;5.50;85.50
27803;DHT22;15182;48.174;11.562;2023-03-01T07:17:04;5.50;85.50
27803;DHT22;15182;48.174;11.562;2023-03-01T07:19:37;5.50;85.40
27803;DHT22;15182;48.174;11.562;2023-03-01T07:22:08;5.50;85.40
27803;DHT22;15182;48.174;11.562;2023-03-01T07:24:39;5.50;85.40
27803;DHT22;15182;48.174;11.562;2023-03-01T07:27:11;5.50;85.50
27803;DHT22;15182;48.174;11.562;2023-03-01T07:29:42;5.50;85.50
27803;DHT22;15182;48.174;11.562;2023-03-01T07:32:13;5.50;85.50
27803;DHT22;15182;48.174;11.562;2023-03-01T07:34:46;5.40;85.40
27803;DHT22;15182;48.174;11.562;2023-03-01T07:37:17;5.50;85.60
27803;DHT22;15182;48.174;11.562;2023-03-01T07:39:48;5.50;85.50
27803;DHT22;15182;48.174;11.562;2023-03-01T07:42:20;5.50;85.40
27803;DHT22;15182;48.174;11.562;2023-03-01T07:44:51;5.50;85.40
27803;DHT22;15182;48.174;11.562;2023-03-01T07:47:22;5.50;85.30
27803;DHT22;15182;48.174;11.562;2023-03-01T07:49:55;5.50;85.40
27803;DHT22;15182;48.174;11.562;2023-03-01T07:52:26;5.50;85.50
27803;DHT22;15182;48.174;11.562;2023-03-01T07:54:57;5.50;85.60
27803;DHT22;15182;48.174;11.562;2023-03-01T07:57:28;5.60;85.70
27803;DHT22;15182;48.174;11.562;2023-03-01T08:00:00;5.60;85.60
27803;DHT22;15182;48.174;11.562;2023-03-01T08:02:40;5.60;85.50
27803;DHT22;15182;48.174;11.562;2023-03-01T08:05:13;5.60;85.50
27803;DHT22;15182;48.174;11.562;2023-03-01T08:07:44;5.60;85.50
27803;DHT22;15182;48.174;11.562;2023-03-01T08:10:16;5.70;85.60
27803;DHT22;15182;48.174;11.562;2023-03-01T08:12:47;5.70;85.40
27803;DHT22;15182;48.174;11.562;2023-03-01T08:15:19;5.70;85.30
27803;DHT22;15182;48.174;11.562;2023-03-01T08:17:50;5.80;85.20
27803;DHT22;15182;48.174;11.562;2023-03-01T08:20:23;5.80;85.10
27803;DHT22;15182;48.174;11.562;2023-03-01T08:22:54;5.80;85.00
27803;DHT22;15182;48.174;11.562;2023-03-01T08:25:26;5.80;84.90
27803;DHT22;15182;48.174;11.562;2023-03-01T08:27:58;5.80;84.70
27803;DHT22;15182;48.174;11.562;2023-03-01T08:30:29;5.80;84.80
27803;DHT22;15182;48.174;11.562;2023-03-01T08:33:01;5.70;84.90
27803;DHT22;15182;48.174;11.562;2023-03-01T08:35:33;5.80;84.90
27803;DHT22;15182;48.174;11.562;2023-03-01T08:38:05;5.80;84.90
27803;DHT22;15182;48.174;11.562;2023-03-01T08:40:36;5.80;84.90
27803;DHT22;15182;48.174;11.562;2023-03-01T08:43:07;5.80;84.90
27803;DHT22;15182;48.174;11.562;2023-03-01T08:45:38;5.80;84.90
27803;DHT22;15182;48.174;11.562;2023-03-01T08:48:10;5.90;85.00
27803;DHT22;15182;48.174;11.562;2023-03-01T08:50:42;5.90;84.90
27803;DHT22;15182;48.174;11.562;2023-03-01T08:53:13;5.90;85.70
27803;DHT22;15182;48.174;11.562;2023-03-01T08:55:45;5.90;84.90
27803;DHT22;15182;48.174;11.562;2023-03-01T08:58:16;5.90;84.90
27803;DHT22;15182;48.174;11.562;2023-03-01T09:00:47;6.00;84.90
27803;DHT22;15182;48.174;11.562;2023-03-01T09:03:18;6.00;85.00
27803;DHT22;15182;48.174;11.562;2023-03-01T09:05:51;6.00;85.00
27803;DHT22;15182;48.174;11.562;2023-03-01T09:08:28;6.10;85.00
27803;DHT22;15182;48.174;11.562;2023-03-01T09:11:00;6.10;84.90
27803;DHT22;15182;48.174;11.562;2023-03-01T09:13:32;6.20;85.00
27803;DHT22;15182;48.174;11.562;2023-03-01T09:16:06;6.20;84.90
27803;DHT22;15182;48.174;11.562;2023-03-01T09:18:39;6.20;84.70
27803;DHT22;15182;48.174;11.562;2023-03-01T09:21:13;6.20;84.70
27803;DHT22;15182;48.174;11.562;2023-03-01T09:23:46;6.30;84.80
27803;DHT22;15182;48.174;11.562;2023-03-01T09:26:20;6.30;84.80
27803;DHT22;15182;48.174;11.562;2023-03-01T09:28:53;6.30;84.80
27803;DHT22;15182;48.174;11.562;2023-03-01T09:31:26;6.40;84.80
27803;DHT22;15182;48.174;11.562;2023-03-01T09:33:57;6.40;84.90
27803;DHT22;15182;48.174;11.562;2023-03-01T09:36:29;6.40;84.90
27803;DHT22;15182;48.174;11.562;2023-03-01T09:39:02;6.40;84.80
27803;DHT22;15182;48.174;11.562;2023-03-01T09:41:45;6.40;84.70
27803;DHT22;15182;48.174;11.562;2023-03-01T09:44:28;6.50;84.80
27803;DHT22;15182;48.174;11.562;2023-03-01T09:47:00;6.50;84.60
27803;DHT22;15182;48.174;11.562;2023-03-01T09:49:34;6.50;84.60
27803;DHT22;15182;48.174;11.562;2023-03-01T09:52:16;6.50;84.80
27803;DHT22;15182;48.174;11.562;2023-03-01T09:54:54;6.50;84.90
27803;DHT22;15182;48.174;11.562;2023-03-01T09:57:30;6.50;84.90
27803;DHT22;15182;48.174;11.562;2023-03-01T10:00:16;6.60;84.80
27803;DHT22;15182;48.174;11.562;2023-03-01T10:02:52;6.60;84.70
27803;DHT22;15182;48.174;11.562;2023-03-01T10:05:44;6.60;84.80
27803;DHT22;15182;48.174;11.562;2023-03-01T10:08:26;6.60;84.80
27803;DHT22;15182;48.174;11.562;2023-03-01T10:10:59;6.70;84.60
27803;DHT22;15182;48.174;11.562;2023-03-01T10:13:41;6.70;84.60
27803;DHT22;15182;48.174;11.562;2023-03-01T10:16:19;6.70;84.70
27803;DHT22;15182;48.174;11.562;2023-03-01T10:18:53;6.80;84.60
27803;DHT22;15182;48.174;11.562;2023-03-01T10:21:29;6.80;84.50
27803;DHT22;15182;48.174;11.562;2023-03-01T10:24:10;6.80;84.40
27803;DHT22;15182;48.174;11.562;2023-03-01T10:26:48;6.80;84.40
27803;DHT22;15182;48.174;11.562;2023-03-01T10:29:26;6.90;84.20
27803;DHT22;15182;48.174;11.562;2023-03-01T10:32:02;6.90;84.50
27803;DHT22;15182;48.174;11.562;2023-03-01T10:34:36;7.00;84.50
27803;DHT22;15182;48.174;11.562;2023-03-01T10:37:13;7.10;84.40
27803;DHT22;15182;48.174;11.562;2023-03-01T10:40:05;7.10;84.10
27803;DHT22;15182;48.174;11.562;2023-03-01T10:42:45;7.30;84.00
27803;DHT22;15182;48.174;11.562;2023-03-01T10:45:26;7.40;84.20
27803;DHT22;15182;48.174;11.562;2023-03-01T10:48:05;7.50;84.50
27803;DHT22;15182;48.174;11.562;2023-03-01T10:50:40;7.70;84.50
27803;DHT22;15182;48.174;11.562;2023-03-01T10:53:24;7.90;84.40
27803;DHT22;15182;48.174;11.562;2023-03-01T10:56:02;8.10;83.60
27803;DHT22;15182;48.174;11.562;2023-03-01T10:58:36;8.20;83.20
27803;DHT22;15182;48.174;11.562;2023-03-01T11:01:25;8.40;83.30
27803;DHT22;15182;48.174;11.562;2023-03-01T11:04:13;8.50;82.70
27803;DHT22;15182;48.174;11.562;2023-03-01T11:06:45;8.60;82.40
27803;DHT22;15182;48.174;11.562;2023-03-01T11:09:30;8.70;82.40
27803;DHT22;15182;48.174;11.562;2023-03-01T11:12:12;8.80;82.20
27803;DHT22;15182;48.174;11.562;2023-03-01T11:14:49;8.80;82.50
27803;DHT22;15182;48.174;11.562;2023-03-01T11:17:26;8.90;82.40
27803;DHT22;15182;48.174;11.562;2023-03-01T11:20:03;9.10;82.30
27803;DHT22;15182;48.174;11.562;2023-03-01T11:22:53;9.30;82.10
27803;DHT22;15182;48.174;11.562;2023-03-01T11:25:27;9.40;82.10
27803;DHT22;15182;48.174;11.562;2023-03-01T11:28:04;9.60;82.00
27803;DHT22;15182;48.174;11.562;2023-03-01T11:30:38;9.70;81.30
27803;DHT22;15182;48.174;11.562;2023-03-01T11:33:16;9.90;81.30
27803;DHT22;15182;48.174;11.562;2023-03-01T11:35:56;10.00;81.30
27803;DHT22;15182;48.174;11.562;2023-03-01T11:38:32;10.30;81.00
27803;DHT22;15182;48.174;11.562;2023-03-01T11:41:11;10.50;81.20
27803;DHT22;15182;48.174;11.562;2023-03-01T11:43:51;10.70;80.80
27803;DHT22;15182;48.174;11.562;2023-03-01T11:46:46;10.90;80.30
27803;DHT22;15182;48.174;11.562;2023-03-01T11:52:36;11.30;79.50
27803;DHT22;15182;48.174;11.562;2023-03-01T11:55:39;11.50;79.20
27803;DHT22;15182;48.174;11.562;2023-03-01T11:58:38;11.50;79.00
27803;DHT22;15182;48.174;11.562;2023-03-01T12:01:28;11.60;78.50
27803;DHT22;15182;48.174;11.562;2023-03-01T12:04:36;11.70;78.40
27803;DHT22;15182;48.174;11.562;2023-03-01T12:07:36;11.80;78.50
27803;DHT22;15182;48.174;11.562;2023-03-01T12:10:25;11.90;78.30
27803;DHT22;15182;48.174;11.562;2023-03-01T12:13:35;12.00;77.90
27803;DHT22;15182;48.174;11.562;2023-03-01T12:16:47;12.00;77.70
27803;DHT22;15182;48.174;11.562;2023-03-01T12:19:53;12.10;78.00
27803;DHT22;15182;48.174;11.562;2023-03-01T12:22:48;12.10;77.40
27803;DHT22;15182;48.174;11.562;2023-03-01T12:25:31;12.20;77.30
27803;DHT22;15182;48.174;11.562;2023-03-01T12:28:29;12.20;77.50
27803;DHT22;15182;48.174;11.562;2023-03-01T12:31:37;12.20;77.20
27803;DHT22;15182;48.174;11.562;2023-03-01T12:34:25;12.30;76.80
27803;DHT22;15182;48.174;11.562;2023-03-01T12:37:18;12.30;77.20
27803;DHT22;15182;48.174;11.562;2023-03-01T12:40:03;12.30;77.00
27803;DHT22;15182;48.174;11.562;2023-03-01T12:42:54;12.30;76.70
27803;DHT22;15182;48.174;11.562;2023-03-01T12:45:42;12.40;76.60
27803;DHT22;15182;48.174;11.562;2023-03-01T12:48:31;12.30;76.60
27803;DHT22;15182;48.174;11.562;2023-03-01T12:51:10;12.40;76.90
27803;DHT22;15182;48.174;11.562;2023-03-01T12:53:47;12.40;77.00
27803;DHT22;15182;48.174;11.562;2023-03-01T12:56:21;12.50;76.90
27803;DHT22;15182;48.174;11.562;2023-03-01T12:58:59;12.50;76.50
27803;DHT22;15182;48.174;11.562;2023-03-01T13:01:39;12.60;76.20
27803;DHT22;15182;48.174;11.562;2023-03-01T13:07:24;12.60;76.00
27803;DHT22;15182;48.174;11.562;2023-03-01T13:10:02;12.60;76.20
27803;DHT22;15182;48.174;11.562;2023-03-01T13:12:55;12.50;75.90
27803;DHT22;15182;48.174;11.562;2023-03-01T13:15:33;12.50;75.70
27803;DHT22;15182;48.174;11.562;2023-03-01T13:18:31;12.40;76.20
27803;DHT22;15182;48.174;11.562;2023-03-01T13:21:05;12.40;75.80
27803;DHT22;15182;48.174;11.562;2023-03-01T13:23:39;12.40;76.50
27803;DHT22;15182;48.174;11.562;2023-03-01T13:26:12;12.40;76.40
27803;DHT22;15182;48.174;11.562;2023-03-01T13:29:01;12.30;77.30
27803;DHT22;15182;48.174;11.562;2023-03-01T13:31:57;12.30;75.90
27803;DHT22;15182;48.174;11.562;2023-03-01T13:34:53;12.30;75.90
27803;DHT22;15182;48.174;11.562;2023-03-01T13:37:34;12.20;76.10
27803;DHT22;15182;48.174;11.562;2023-03-01T13:43:30;12.20;75.90
27803;DHT22;15182;48.174;11.562;2023-03-01T13:46:07;12.10;76.40
27803;DHT22;15182;48.174;11.562;2023-03-01T13:48:40;12.00;76.50
27803;DHT22;15182;48.174;11.562;2023-03-01T13:51:14;12.00;76.60
27803;DHT22;15182;48.174;11.562;2023-03-01T13:53:50;11.90;76.80
27803;DHT22;15182;48.174;11.562;2023-03-01T13:56:27;11.90;76.80
27803;DHT22;15182;48.174;11.562;2023-03-01T13:59:04;11.90;76.70
27803;DHT22;15182;48.174;11.562;2023-03-01T14:01:41;11.90;76.90
27803;DHT22;15182;48.174;11.562;2023-03-01T14:04:24;11.80;77.00
27803;DHT22;15182;48.174;11.562;2023-03-01T14:07:09;11.80;76.60
27803;DHT22;15182;48.174;11.562;2023-03-01T14:09:50;11.70;76.60
27803;DHT22;15182;48.174;11.562;2023-03-01T14:12:33;11.60;77.00
27803;DHT22;15182;48.174;11.562;2023-03-01T14:15:13;11.60;77.10
27803;DHT22;15182;48.174;11.562;2023-03-01T14:17:52;11.50;77.30
27803;DHT22;15182;48.174;11.562;2023-03-01T14:20:26;11.40;77.30
27803;DHT22;15182;48.174;11.562;2023-03-01T14:23:01;11.40;77.50
27803;DHT22;15182;48.174;11.562;2023-03-01T14:25:45;11.30;77.60
27803;DHT22;15182;48.174;11.562;2023-03-01T14:28:19;11.30;77.70
27803;DHT22;15182;48.174;11.562;2023-03-01T14:30:53;11.20;77.80
27803;DHT22;15182;48.174;11.562;2023-03-01T14:33:27;11.10;78.00
27803;DHT22;15182;48.174;11.562;2023-03-01T14:36:02;11.10;78.10
27803;DHT22;15182;48.174;11.562;2023-03-01T14:38:38;11.00;78.10
27803;DHT22;15182;48.174;11.562;2023-03-01T14:41:13;11.00;78.30
27803;DHT22;15182;48.174;11.562;2023-03-01T14:43:45;10.90;78.30
27803;DHT22;15182;48.174;11.562;2023-03-01T14:46:21;10.90;78.40
27803;DHT22;15182;48.174;11.562;2023-03-01T14:49:03;10.90;78.40
27803;DHT22;15182;48.174;11.562;2023-03-01T14:51:40;10.80;78.50
27803;DHT22;15182;48.174;11.562;2023-03-01T14:54:21;10.80;78.60
27803;DHT22;15182;48.174;11.562;2023-03-01T14:56:58;10.80;78.70
27803;DHT22;15182;48.174;11.562;2023-03-01T14:59:32;10.70;78.90
27803;DHT22;15182;48.174;11.562;2023-03-01T15:02:10;10.70;79.10
27803;DHT22;15182;48.174;11.562;2023-03-01T15:04:49;10.70;79.20
27803;DHT22;15182;48.174;11.562;2023-03-01T15:07:22;10.70;79.30
27803;DHT22;15182;48.174;11.562;2023-03-01T15:09:55;10.60;79.40
27803;DHT22;15182;48.174;11.562;2023-03-01T15:12:38;10.60;79.50
27803;DHT22;15182;48.174;11.562;2023-03-01T15:15:31;10.60;79.50
27803;DHT22;15182;48.174;11.562;2023-03-01T15:18:12;10.60;79.70
27803;DHT22;15182;48.174;11.562;2023-03-01T15:20:44;10.60;79.80
27803;DHT22;15182;48.174;11.562;2023-03-01T15:23:25;10.60;80.00
27803;DHT22;15182;48.174;11.562;2023-03-01T15:25:58;10.60;79.90
27803;DHT22;15182;48.174;11.562;2023-03-01T15:28:34;10.60;80.00
27803;DHT22;15182;48.174;11.562;2023-03-01T15:31:21;10.70;80.10
27803;DHT22;15182;48.174;11.562;2023-03-01T15:33:58;10.60;80.00
27803;DHT22;15182;48.174;11.562;2023-03-01T15:36:41;10.60;80.20
27803;DHT22;15182;48.174;11.562;2023-03-01T15:39:32;10.60;80.20
27803;DHT22;15182;48.174;11.562;2023-03-01T15:42:36;10.60;80.30
27803;DHT22;15182;48.174;11.562;2023-03-01T15:45:23;10.60;80.40
27803;DHT22;15182;48.174;11.562;2023-03-01T15:47:57;10.70;80.60
27803;DHT22;15182;48.174;11.562;2023-03-01T15:50:33;10.70;80.70
27803;DHT22;15182;48.174;11.562;2023-03-01T15:53:13;10.60;80.70
27803;DHT22;15182;48.174;11.562;2023-03-01T15:55:45;10.70;80.80
27803;DHT22;15182;48.174;11.562;2023-03-01T15:58:21;10.60;80.90
27803;DHT22;15182;48.174;11.562;2023-03-01T16:00:55;10.60;80.90
27803;DHT22;15182;48.174;11.562;2023-03-01T16:03:26;10.60;81.00
27803;DHT22;15182;48.174;11.562;2023-03-01T16:05:58;10.60;81.00
27803;DHT22;15182;48.174;11.562;2023-03-01T16:08:31;10.70;81.20
27803;DHT22;15182;48.174;11.562;2023-03-01T16:11:02;10.70;81.20
27803;DHT22;15182;48.174;11.562;2023-03-01T16:13:37;10.70;81.20
27803;DHT22;15182;48.174;11.562;2023-03-01T16:16:13;10.70;81.30
27803;DHT22;15182;48.174;11.562;2023-03-01T16:18:46;10.70;82.30
27803;DHT22;15182;48.174;11.562;2023-03-01T16:21:22;10.70;81.50
27803;DHT22;15182;48.174;11.562;2023-03-01T16:23:54;10.70;81.60
27803;DHT22;15182;48.174;11.562;2023-03-01T16:26:26;10.70;81.60
27803;DHT22;15182;48.174;11.562;2023-03-01T16:28:58;10.70;81.70
27803;DHT22;15182;48.174;11.562;2023-03-01T16:31:31;10.70;81.80
27803;DHT22;15182;48.174;11.562;2023-03-01T16:34:02;10.70;81.70
27803;DHT22;15182;48.174;11.562;2023-03-01T16:36:34;10.70;81.70